createdAt,value
2022-10-12T00:01:16.249Z,63.38
2022-10-12T00:03:42.488Z,56.75
2022-10-12T00:06:08.691Z,58.83
2022-10-12T00:08:34.887Z,56.97
2022-10-12T00:11:01.176Z,58.35
2022-10-12T00:13:27.449Z,58.72
2022-10-12T00:15:53.690Z,62.42
2022-10-12T00:18:19.941Z,57.25
2022-10-12T00:20:46.129Z,62.58
2022-10-12T00:23:12.315Z,56.88
2022-10-12T00:25:38.573Z,61.28
2022-10-12T00:28:04.781Z,62.85
2022-10-12T00:30:31.035Z,62.33
2022-10-12T00:32:57.377Z,59.78
2022-10-12T00:35:23.564Z,51.38
2022-10-12T00:37:49.834Z,60.17
2022-10-12T00:40:16.017Z,58.55
2022-10-12T00:42:42.200Z,64.88
2022-10-12T00:45:08.378Z,63.50
2022-10-12T00:47:34.698Z,68.75
2022-10-12T00:50:00.997Z,65.90
2022-10-12T00:52:27.186Z,60.53
2022-10-12T00:54:53.381Z,59.42
2022-10-12T00:57:19.755Z,60.30
2022-10-12T00:59:46.007Z,63.25
2022-10-12T01:02:12.198Z,65.68
2022-10-12T01:04:38.370Z,60.55
2022-10-12T01:07:04.575Z,59.13
2022-10-12T01:09:30.760Z,61.63
2022-10-12T01:11:57.910Z,63.03
2022-10-12T01:14:24.093Z,66.32
2022-10-12T01:16:50.272Z,61.97
2022-10-12T01:19:16.455Z,57.13
2022-10-12T01:21:42.634Z,58.20
2022-10-12T01:24:08.814Z,59.65
2022-10-12T01:26:34.998Z,59.25
2022-10-12T01:29:01.189Z,54.72
2022-10-12T01:31:32.237Z,54.47
2022-10-12T01:33:58.872Z,56.13
2022-10-12T01:36:25.059Z,54.40
2022-10-12T01:38:51.260Z,51.15
2022-10-12T01:41:17.452Z,51.05
2022-10-12T01:43:43.666Z,55.25
2022-10-12T01:46:09.861Z,55.08
2022-10-12T01:48:36.061Z,59.13
2022-10-12T01:51:02.253Z,50.50
2022-10-12T01:53:28.760Z,60.83
2022-10-12T01:55:54.944Z,51.05
2022-10-12T01:58:21.155Z,52.17
2022-10-12T02:00:47.456Z,56.90
2022-10-12T02:03:13.675Z,52.45
2022-10-12T02:05:39.859Z,56.72
2022-10-12T02:08:06.053Z,58.83
2022-10-12T02:10:32.236Z,61.95
2022-10-12T02:12:58.424Z,60.28
2022-10-12T02:15:24.666Z,56.33
2022-10-12T02:17:50.864Z,53.17
2022-10-12T02:20:17.056Z,56.35
2022-10-12T02:22:43.234Z,58.92
2022-10-12T02:25:10.962Z,56.75
2022-10-12T02:27:37.437Z,52.50
2022-10-12T02:30:03.834Z,53.30
2022-10-12T02:32:30.019Z,53.55
2022-10-12T02:34:56.236Z,59.15
2022-10-12T02:37:22.423Z,56.30
2022-10-12T02:39:48.675Z,65.57
2022-10-12T02:42:14.855Z,58.53
2022-10-12T02:44:41.236Z,65.00
2022-10-12T02:47:07.438Z,58.20
2022-10-12T02:49:33.614Z,53.25
2022-10-12T02:51:59.804Z,50.05
2022-10-12T02:54:25.991Z,51.28
2022-10-12T02:56:52.176Z,47.78
2022-10-12T02:59:18.660Z,52.30
2022-10-12T03:01:44.900Z,52.15
2022-10-12T03:04:11.312Z,54.58
2022-10-12T03:06:37.504Z,55.58
2022-10-12T03:09:05.104Z,51.33
2022-10-12T03:11:31.367Z,50.38
2022-10-12T03:13:57.556Z,51.70
2022-10-12T03:16:23.780Z,62.80
2022-10-12T03:18:51.317Z,62.00
2022-10-12T03:21:17.563Z,68.00
2022-10-12T03:23:43.746Z,63.55
2022-10-12T03:26:09.925Z,61.83
2022-10-12T03:28:36.149Z,58.38
2022-10-12T03:31:02.344Z,61.42
2022-10-12T03:33:28.566Z,71.82
2022-10-12T03:35:54.779Z,75.20
2022-10-12T03:38:20.984Z,75.68
2022-10-12T03:40:47.176Z,73.30
2022-10-12T03:43:13.414Z,74.88
2022-10-12T03:45:39.601Z,78.28
2022-10-12T03:48:05.792Z,83.90
2022-10-12T03:50:34.667Z,79.30
2022-10-12T03:53:00.863Z,67.40
2022-10-12T03:55:27.076Z,68.85
2022-10-12T03:57:53.256Z,60.63
2022-10-12T04:00:19.441Z,65.22
2022-10-12T04:02:45.631Z,66.85
2022-10-12T04:05:11.815Z,74.10
2022-10-12T04:07:38.208Z,73.97
2022-10-12T04:10:04.727Z,69.60
2022-10-12T04:12:30.902Z,64.40
2022-10-12T04:14:57.133Z,59.63
2022-10-12T04:17:23.472Z,55.97
2022-10-12T04:19:49.728Z,47.05
2022-10-12T04:22:16.162Z,52.95
2022-10-12T04:24:43.612Z,47.65
2022-10-12T04:27:09.882Z,48.45
2022-10-12T04:29:37.096Z,53.00
2022-10-12T04:32:03.290Z,53.23
2022-10-12T04:34:29.474Z,61.22
2022-10-12T04:36:55.659Z,78.50
2022-10-12T04:39:21.847Z,76.97
2022-10-12T04:41:48.034Z,68.28
2022-10-12T04:44:14.267Z,84.00
2022-10-12T04:46:40.480Z,83.10
2022-10-12T04:49:06.684Z,90.18
2022-10-12T04:51:32.987Z,87.97
2022-10-12T04:53:59.227Z,87.43
2022-10-12T04:56:25.410Z,82.53
2022-10-12T04:58:51.591Z,91.22
2022-10-12T05:01:18.136Z,83.70
2022-10-12T05:03:44.631Z,78.90
2022-10-12T05:06:10.871Z,69.60
2022-10-12T05:08:37.070Z,74.30
2022-10-12T05:11:03.250Z,67.80
2022-10-12T05:13:29.909Z,72.35
2022-10-12T05:15:56.109Z,64.82
2022-10-12T05:18:22.332Z,68.65
2022-10-12T05:20:57.038Z,85.50
2022-10-12T05:23:23.567Z,84.85
2022-10-12T05:25:49.747Z,75.05
2022-10-12T05:28:15.978Z,64.72
2022-10-12T05:30:42.195Z,69.68
2022-10-12T05:33:08.569Z,65.43
2022-10-12T05:35:34.855Z,65.90
2022-10-12T05:38:01.402Z,66.72
2022-10-12T05:40:28.700Z,67.90
2022-10-12T05:42:54.891Z,70.82
2022-10-12T05:45:21.354Z,70.75
2022-10-12T05:47:47.580Z,69.15
2022-10-12T05:50:13.762Z,71.22
2022-10-12T05:52:40.359Z,67.20
2022-10-12T05:55:06.896Z,67.13
2022-10-12T05:57:33.126Z,60.80
2022-10-12T05:59:59.333Z,65.72
2022-10-12T06:02:25.555Z,72.32
2022-10-12T06:04:51.744Z,75.22
2022-10-12T06:07:17.970Z,75.00
2022-10-12T06:09:44.751Z,74.53
2022-10-12T06:12:10.952Z,76.82
2022-10-12T06:14:37.143Z,75.35
2022-10-12T06:17:03.357Z,67.95
2022-10-12T06:19:29.548Z,67.97
2022-10-12T06:21:59.251Z,66.72
2022-10-12T06:24:25.434Z,63.65
2022-10-12T06:26:51.631Z,64.22
2022-10-12T06:29:17.802Z,60.85
2022-10-12T06:31:47.643Z,62.08
2022-10-12T06:34:16.741Z,64.15
2022-10-12T06:36:43.000Z,62.85
2022-10-12T06:39:09.193Z,63.05
2022-10-12T06:41:35.524Z,62.45
2022-10-12T06:44:01.711Z,63.53
2022-10-12T06:46:27.928Z,63.88
2022-10-12T06:48:54.134Z,63.20
2022-10-12T06:51:20.375Z,62.00
2022-10-12T06:53:46.565Z,66.38
2022-10-12T06:56:12.791Z,72.88
2022-10-12T06:58:39.039Z,72.45
2022-10-12T07:01:05.259Z,72.82
2022-10-12T07:03:31.433Z,69.70
2022-10-12T07:05:57.634Z,76.97
2022-10-12T07:08:23.818Z,72.20
2022-10-12T07:10:49.991Z,75.65
2022-10-12T07:13:16.185Z,79.95
2022-10-12T07:15:42.371Z,87.85
2022-10-12T07:18:08.570Z,79.43
2022-10-12T07:20:34.742Z,74.18
2022-10-12T07:23:00.918Z,78.55
2022-10-12T07:25:27.112Z,69.13
2022-10-12T07:27:53.358Z,71.25
2022-10-12T07:30:19.618Z,70.53
2022-10-12T07:32:46.950Z,61.13
2022-10-12T07:35:13.205Z,61.53
2022-10-12T07:37:39.699Z,60.15
2022-10-12T07:40:06.122Z,70.20
2022-10-12T07:42:32.370Z,79.63
2022-10-12T07:44:58.619Z,82.57
2022-10-12T07:47:24.806Z,83.07
2022-10-12T07:49:51.084Z,47.85
2022-10-12T07:52:17.528Z,57.42
2022-10-12T07:54:43.819Z,64.30
2022-10-12T07:57:10.094Z,49.80
2022-10-12T07:59:36.347Z,50.40
2022-10-12T08:02:02.731Z,55.67
2022-10-12T08:04:29.026Z,53.25
2022-10-12T08:06:55.490Z,61.20
2022-10-12T08:09:21.727Z,61.80
2022-10-12T08:11:47.998Z,64.78
2022-10-12T08:14:14.712Z,54.47
2022-10-12T08:16:40.993Z,45.20
2022-10-12T08:19:07.255Z,59.75
2022-10-12T08:21:33.500Z,57.03
2022-10-12T08:23:59.758Z,38.10
2022-10-12T08:26:26.023Z,38.03
2022-10-12T08:28:52.728Z,42.10
2022-10-12T08:31:19.380Z,44.17
2022-10-12T08:33:45.711Z,43.45
2022-10-12T08:36:11.950Z,43.90
2022-10-12T08:38:43.333Z,52.90
2022-10-12T08:41:09.647Z,48.03
2022-10-12T08:43:39.024Z,56.25
2022-10-12T08:46:05.276Z,56.00
2022-10-12T08:48:31.541Z,55.85
2022-10-12T08:53:29.087Z,88.57
2022-10-12T08:55:56.768Z,66.50
2022-10-12T08:58:23.016Z,61.45
2022-10-12T09:00:49.308Z,53.67
2022-10-12T09:03:15.579Z,59.65
2022-10-12T09:05:41.890Z,95.57
2022-10-12T09:08:08.168Z,67.38
2022-10-12T09:10:34.507Z,69.28
2022-10-12T09:13:00.799Z,54.72
2022-10-12T09:15:27.060Z,53.17
2022-10-12T09:17:53.306Z,76.40
2022-10-12T09:20:19.743Z,65.40
2022-10-12T09:22:45.987Z,56.38
2022-10-12T09:25:12.511Z,57.65
2022-10-12T09:27:42.924Z,62.97
2022-10-12T09:30:11.285Z,105.10
2022-10-12T09:32:37.540Z,55.95
2022-10-12T09:35:04.208Z,50.58
2022-10-12T09:37:30.468Z,100.80
2022-10-12T09:39:56.741Z,51.10
2022-10-12T09:42:23.012Z,48.95
2022-10-12T09:44:49.374Z,48.15
2022-10-12T09:47:15.647Z,53.60
2022-10-12T09:49:41.912Z,60.70
2022-10-12T09:52:08.175Z,48.40
2022-10-12T09:54:34.498Z,53.20
2022-10-12T09:57:00.769Z,70.75
2022-10-12T09:59:27.382Z,50.45
2022-10-12T10:01:53.648Z,47.40
2022-10-12T10:04:20.051Z,49.70
2022-10-12T10:06:46.356Z,58.58
2022-10-12T10:09:12.594Z,58.67
2022-10-12T10:11:39.511Z,48.80
2022-10-12T10:14:05.785Z,49.50
2022-10-12T10:16:32.094Z,75.10
2022-10-12T10:18:58.371Z,79.78
2022-10-12T10:21:24.610Z,86.68
2022-10-12T10:23:51.248Z,54.58
2022-10-12T10:28:44.749Z,73.85
2022-10-12T10:31:11.047Z,93.13
2022-10-12T10:33:37.506Z,66.53
2022-10-12T10:36:04.140Z,46.58
2022-10-12T10:38:30.473Z,49.75
2022-10-12T10:40:57.194Z,53.33
2022-10-12T10:43:23.768Z,54.80
2022-10-12T10:45:50.034Z,51.60
2022-10-12T10:48:16.311Z,56.60
2022-10-12T10:50:42.559Z,69.43
2022-10-12T10:53:08.892Z,68.85
2022-10-12T10:55:35.146Z,61.17
2022-10-12T10:58:01.407Z,52.22
2022-10-12T11:00:43.292Z,53.42
2022-10-12T11:03:09.991Z,45.53
2022-10-12T11:05:36.333Z,61.30
2022-10-12T11:08:02.615Z,58.67
2022-10-12T11:10:29.125Z,62.17
2022-10-12T11:12:55.384Z,60.33
2022-10-12T11:15:21.935Z,54.95
2022-10-12T11:17:48.291Z,62.95
2022-10-12T11:20:17.341Z,61.70
2022-10-12T11:22:46.022Z,72.95
2022-10-12T11:25:12.279Z,72.82
2022-10-12T11:27:38.575Z,97.25
2022-10-12T11:30:11.636Z,135.38
2022-10-12T11:32:37.946Z,147.10
2022-10-12T11:35:04.239Z,131.35
2022-10-12T11:37:30.625Z,136.50
2022-10-12T11:39:56.872Z,150.98
2022-10-12T11:42:23.228Z,129.60
2022-10-12T11:44:49.490Z,144.02
2022-10-12T11:47:15.781Z,100.55
2022-10-12T11:49:42.044Z,93.32
2022-10-12T11:52:08.325Z,127.13
2022-10-12T11:54:34.590Z,103.13
2022-10-12T11:57:00.841Z,103.53
2022-10-12T11:59:27.157Z,112.03
2022-10-12T12:01:53.406Z,131.77
2022-10-12T12:04:50.516Z,113.38
2022-10-12T12:07:07.126Z,95.40
2022-10-12T12:09:33.394Z,103.53
2022-10-12T12:11:59.638Z,173.02
2022-10-12T12:14:25.913Z,162.35
2022-10-12T12:16:52.174Z,176.20
2022-10-12T12:19:18.513Z,145.45
2022-10-12T12:21:44.780Z,184.75
2022-10-12T12:24:11.054Z,145.25
2022-10-12T12:26:37.316Z,159.80
2022-10-12T12:29:03.585Z,140.52
2022-10-12T12:31:30.442Z,145.10
2022-10-12T12:33:56.707Z,128.32
2022-10-12T12:36:22.958Z,123.88
2022-10-12T12:38:49.305Z,103.10
2022-10-12T12:41:15.611Z,129.63
2022-10-12T12:43:41.862Z,136.15
2022-10-12T12:46:08.247Z,138.65
2022-10-12T12:48:34.527Z,131.35
2022-10-12T12:51:00.919Z,140.15
2022-10-12T12:53:27.192Z,181.20
2022-10-12T12:55:53.469Z,157.73
2022-10-12T12:58:19.878Z,126.65
2022-10-12T13:03:18.970Z,116.97
2022-10-12T13:05:45.244Z,215.35
2022-10-12T13:08:11.522Z,128.90
2022-10-12T13:10:37.782Z,110.38
2022-10-12T13:13:04.507Z,140.93
2022-10-12T13:15:30.753Z,110.18
2022-10-12T13:17:57.649Z,119.70
2022-10-12T13:20:23.932Z,138.73
2022-10-12T13:22:50.398Z,100.18
2022-10-12T13:25:16.775Z,113.57
2022-10-12T13:27:43.033Z,146.45
2022-10-12T13:30:09.341Z,109.25
2022-10-12T13:32:35.610Z,113.50
2022-10-12T13:35:02.367Z,117.95
2022-10-12T13:37:28.635Z,145.90
2022-10-12T13:39:56.189Z,117.82
2022-10-12T13:42:22.453Z,113.38
2022-10-12T13:44:48.759Z,117.93
2022-10-12T13:47:15.060Z,113.43
2022-10-12T13:49:41.324Z,123.07
2022-10-12T13:52:07.590Z,100.68
2022-10-12T13:54:33.859Z,95.40
2022-10-12T13:57:00.197Z,92.53
2022-10-12T13:59:26.595Z,84.65
2022-10-12T14:01:52.848Z,80.93
2022-10-12T14:04:19.158Z,88.13
2022-10-12T14:06:45.426Z,92.40
2022-10-12T14:09:11.699Z,94.18
2022-10-12T14:11:37.980Z,95.07
2022-10-12T14:14:04.354Z,125.22
2022-10-12T14:16:30.719Z,93.03
2022-10-12T14:18:56.993Z,102.43
2022-10-12T14:21:23.573Z,106.05
2022-10-12T14:23:49.877Z,120.68
2022-10-12T14:26:16.191Z,121.53
2022-10-12T14:28:42.561Z,133.43
2022-10-12T14:31:08.852Z,138.52
2022-10-12T14:33:35.128Z,151.50
2022-10-12T14:36:01.397Z,145.65
2022-10-12T14:38:27.651Z,146.40
2022-10-12T14:40:53.911Z,156.68
2022-10-12T14:43:20.479Z,158.93
2022-10-12T14:45:46.751Z,150.43
2022-10-12T14:48:13.006Z,157.10
2022-10-12T14:50:39.268Z,145.25
2022-10-12T14:53:06.541Z,125.20
2022-10-12T14:55:32.860Z,141.77
2022-10-12T14:57:59.676Z,114.47
2022-10-12T15:00:25.938Z,96.63
2022-10-12T15:02:52.194Z,96.30
2022-10-12T15:05:18.611Z,100.95
2022-10-12T15:07:46.805Z,116.72
2022-10-12T15:10:13.681Z,136.30
2022-10-12T15:12:40.015Z,144.88
2022-10-12T15:15:06.309Z,166.05
2022-10-12T15:17:32.590Z,168.90
2022-10-12T15:19:58.861Z,117.88
2022-10-12T15:22:25.153Z,113.28
2022-10-12T15:24:51.411Z,82.78
2022-10-12T15:27:17.668Z,110.55
2022-10-12T15:29:43.957Z,241.07
2022-10-12T15:32:10.223Z,207.70
2022-10-12T15:34:36.475Z,219.82
2022-10-12T15:37:06.562Z,210.45
2022-10-12T15:39:35.212Z,230.80
2022-10-12T15:42:01.475Z,248.55
2022-10-12T15:44:27.735Z,220.90
2022-10-12T15:46:53.986Z,175.52
2022-10-12T15:49:21.771Z,156.82
2022-10-12T15:51:48.043Z,128.27
2022-10-12T15:54:14.328Z,129.55
2022-10-12T15:56:40.597Z,119.18
2022-10-12T15:59:06.862Z,93.60
2022-10-12T16:01:33.144Z,76.38
2022-10-12T16:03:59.415Z,76.90
2022-10-12T16:06:29.319Z,86.15
2022-10-12T16:08:55.604Z,83.63
2022-10-12T16:11:21.909Z,95.32
2022-10-12T16:13:55.449Z,107.40
2022-10-12T16:16:22.675Z,143.02
2022-10-12T16:18:48.964Z,135.68
2022-10-12T16:21:15.243Z,149.65
2022-10-12T16:23:41.532Z,154.48
2022-10-12T16:26:07.832Z,150.80
2022-10-12T16:28:34.130Z,146.63
2022-10-12T16:31:00.446Z,151.13
2022-10-12T16:33:30.113Z,139.25
2022-10-12T16:35:56.548Z,128.93
2022-10-12T16:38:22.797Z,121.35
2022-10-12T16:40:49.676Z,97.45
2022-10-12T16:43:15.932Z,79.72
2022-10-12T16:45:42.186Z,63.38
2022-10-12T16:48:08.440Z,59.50
2022-10-12T16:50:39.801Z,58.20
2022-10-12T16:53:06.073Z,53.50
2022-10-12T16:55:32.345Z,51.90
2022-10-12T16:57:58.653Z,52.17
2022-10-12T17:00:25.020Z,71.40
2022-10-12T17:02:55.272Z,95.80
2022-10-12T17:05:23.618Z,97.03
2022-10-12T17:07:49.876Z,104.38
2022-10-12T17:10:16.196Z,103.05
2022-10-12T17:12:42.454Z,80.25
2022-10-12T17:15:08.711Z,79.78
2022-10-12T17:17:35.014Z,61.60
2022-10-12T17:22:28.883Z,50.22
2022-10-12T17:24:55.152Z,55.63
2022-10-12T17:27:21.418Z,73.97
2022-10-12T17:29:47.743Z,73.85
2022-10-12T17:32:14.313Z,57.65
2022-10-12T17:34:40.891Z,51.25
2022-10-12T17:37:07.174Z,46.97
2022-10-12T17:39:33.437Z,49.88
2022-10-12T17:41:59.707Z,58.17
2022-10-12T17:44:26.071Z,51.63
2022-10-12T17:46:52.323Z,48.10
2022-10-12T17:49:23.523Z,53.75
2022-10-12T17:51:51.035Z,49.25
2022-10-12T17:54:17.286Z,47.58
2022-10-12T17:56:43.544Z,68.90
2022-10-12T17:59:09.931Z,72.05
2022-10-12T18:01:36.219Z,73.32
2022-10-12T18:04:02.527Z,61.38
2022-10-12T18:06:29.014Z,54.45
2022-10-12T18:08:56.560Z,56.17
2022-10-12T18:11:22.818Z,48.55
2022-10-12T18:13:49.078Z,65.20
2022-10-12T18:16:15.321Z,80.57
2022-10-12T18:18:41.927Z,78.75
2022-10-12T18:21:08.200Z,62.00
2022-10-12T18:23:34.446Z,52.10
2022-10-12T18:26:00.702Z,60.63
2022-10-12T18:28:27.004Z,55.97
2022-10-12T18:30:53.313Z,54.30
2022-10-12T18:33:19.567Z,54.83
2022-10-12T18:35:45.849Z,57.30
2022-10-12T18:38:12.097Z,65.97
2022-10-12T18:40:41.987Z,61.00
2022-10-12T18:43:08.694Z,62.30
2022-10-12T18:45:34.972Z,57.95
2022-10-12T18:48:01.214Z,58.03
2022-10-12T18:50:27.467Z,56.00
2022-10-12T18:52:53.719Z,52.05
2022-10-12T18:55:19.974Z,49.40
2022-10-12T18:57:46.226Z,52.67
2022-10-12T19:00:12.481Z,63.08
2022-10-12T19:02:38.764Z,52.47
2022-10-12T19:05:05.033Z,48.63
2022-10-12T19:07:31.380Z,50.38
2022-10-12T19:09:57.687Z,46.85
2022-10-12T19:12:23.938Z,66.63
2022-10-12T19:14:50.196Z,72.50
2022-10-12T19:17:16.457Z,70.18
2022-10-12T19:19:42.727Z,78.90
2022-10-12T19:22:08.970Z,60.63
2022-10-12T19:24:35.224Z,57.53
2022-10-12T19:27:01.487Z,50.35
2022-10-12T19:29:27.731Z,71.00
2022-10-12T19:31:53.981Z,97.70
2022-10-12T19:34:20.245Z,104.55
2022-10-12T19:36:46.490Z,93.53
2022-10-12T19:39:12.743Z,84.35
2022-10-12T19:41:39.001Z,65.70
2022-10-12T19:44:05.257Z,60.63
2022-10-12T19:46:31.716Z,61.55
2022-10-12T19:48:57.977Z,77.10
2022-10-12T19:51:24.309Z,79.85
2022-10-12T19:53:50.555Z,82.40
2022-10-12T19:56:16.816Z,77.25
2022-10-12T19:58:43.077Z,65.90
2022-10-12T20:01:09.440Z,68.55
2022-10-12T20:03:35.954Z,63.97
2022-10-12T20:06:05.956Z,65.45
2022-10-12T20:08:32.912Z,60.33
2022-10-12T20:10:59.181Z,60.38
2022-10-12T20:13:25.505Z,56.72
2022-10-12T20:15:51.753Z,54.50
2022-10-12T20:18:17.994Z,53.13
2022-10-12T20:20:44.244Z,54.88
2022-10-12T20:23:10.517Z,54.55
2022-10-12T20:25:36.795Z,50.33
2022-10-12T20:28:03.995Z,50.67
2022-10-12T20:30:30.190Z,62.57
2022-10-12T20:32:56.584Z,58.47
2022-10-12T20:35:22.830Z,53.63
2022-10-12T20:37:49.073Z,56.30
2022-10-12T20:40:15.327Z,59.10
2022-10-12T20:42:41.587Z,74.95
2022-10-12T20:45:09.428Z,75.70
2022-10-12T20:47:35.674Z,69.28
2022-10-12T20:50:02.163Z,64.72
2022-10-12T20:52:28.457Z,63.15
2022-10-12T20:54:54.747Z,62.08
2022-10-12T20:57:21.011Z,63.00
2022-10-12T20:59:48.902Z,61.75
2022-10-12T21:02:15.577Z,60.97
2022-10-12T21:04:42.296Z,57.40
2022-10-12T21:07:08.564Z,69.00
2022-10-12T21:09:34.820Z,68.70
2022-10-12T21:12:01.080Z,62.13
2022-10-12T21:14:27.322Z,67.15
2022-10-12T21:16:53.571Z,68.93
2022-10-12T21:19:19.816Z,74.85
2022-10-12T21:21:49.074Z,81.13
2022-10-12T21:24:15.387Z,94.18
2022-10-12T21:26:41.661Z,78.88
2022-10-12T21:29:07.908Z,79.78
2022-10-12T21:31:34.189Z,67.55
2022-10-12T21:34:01.285Z,62.30
2022-10-12T21:36:27.527Z,57.57
2022-10-12T21:38:53.799Z,60.05
2022-10-12T21:41:20.165Z,60.15
2022-10-12T21:43:46.451Z,71.95
2022-10-12T21:46:12.696Z,63.53
2022-10-12T21:48:38.963Z,81.75
2022-10-12T21:51:05.514Z,73.15
2022-10-12T21:53:31.825Z,84.07
2022-10-12T21:55:58.080Z,94.63
2022-10-12T21:58:24.326Z,87.50
2022-10-12T22:00:50.617Z,86.10
2022-10-12T22:03:17.034Z,79.00
2022-10-12T22:05:43.290Z,84.13
2022-10-12T22:08:09.576Z,82.53
2022-10-12T22:10:36.099Z,86.60
2022-10-12T22:13:02.346Z,80.88
2022-10-12T22:15:28.621Z,72.82
2022-10-12T22:17:54.880Z,68.10
2022-10-12T22:20:21.169Z,77.80
2022-10-12T22:22:47.425Z,88.00
2022-10-12T22:25:13.817Z,85.28
2022-10-12T22:27:40.074Z,91.00
2022-10-12T22:30:06.357Z,77.68
2022-10-12T22:32:32.594Z,77.88
2022-10-12T22:34:59.085Z,90.00
2022-10-12T22:37:25.353Z,73.45
2022-10-12T22:39:51.691Z,69.28
2022-10-12T22:42:18.195Z,67.38
2022-10-12T22:44:44.703Z,66.07
2022-10-12T22:47:10.986Z,62.10
2022-10-12T22:49:37.258Z,54.95
2022-10-12T22:52:03.510Z,56.78
2022-10-12T22:54:29.788Z,53.30
2022-10-12T22:56:56.088Z,54.88
2022-10-12T22:59:22.383Z,48.35
2022-10-12T23:01:48.717Z,52.08
2022-10-12T23:04:14.998Z,51.88
2022-10-12T23:06:41.253Z,51.15
2022-10-12T23:09:07.521Z,54.80
2022-10-12T23:11:33.971Z,54.63
2022-10-12T23:14:00.268Z,53.85
2022-10-12T23:16:26.561Z,56.55
2022-10-12T23:18:58.051Z,57.33
2022-10-12T23:21:25.436Z,59.05
2022-10-12T23:23:51.682Z,66.25
2022-10-12T23:26:17.948Z,54.83
2022-10-12T23:28:44.284Z,59.80
2022-10-12T23:31:10.645Z,54.08
2022-10-12T23:33:36.943Z,52.83
2022-10-12T23:36:03.205Z,52.78
2022-10-12T23:38:29.460Z,54.90
2022-10-12T23:40:58.751Z,55.15
2022-10-12T23:43:25.994Z,53.75
2022-10-12T23:45:52.372Z,59.50
2022-10-12T23:48:18.621Z,63.15
2022-10-12T23:50:46.423Z,61.45
2022-10-12T23:53:12.678Z,65.20
2022-10-12T23:55:38.955Z,59.95
2022-10-12T23:58:05.194Z,58.92
